createdAt,value
2022-11-27T00:03:00.499Z,7.63
2022-11-27T00:06:02.906Z,10.15
2022-11-27T00:09:10.347Z,9.25
2022-11-27T00:12:12.632Z,11.00
2022-11-27T00:15:17.304Z,8.63
2022-11-27T00:18:19.819Z,11.00
2022-11-27T00:21:24.275Z,7.95
2022-11-27T00:24:27.978Z,5.18
2022-11-27T00:27:30.386Z,6.75
2022-11-27T00:30:32.703Z,6.63
2022-11-27T00:33:35.214Z,6.00
2022-11-27T00:36:38.035Z,10.07
2022-11-27T00:39:41.638Z,5.97
2022-11-27T00:42:43.976Z,6.90
2022-11-27T00:45:48.919Z,10.73
2022-11-27T00:48:51.350Z,10.30
2022-11-27T00:51:53.622Z,7.90
2022-11-27T00:54:57.295Z,8.68
2022-11-27T00:57:59.556Z,4.80
2022-11-27T01:01:04.516Z,11.20
2022-11-27T01:04:10.620Z,8.73
2022-11-27T01:07:13.400Z,4.90
2022-11-27T01:10:17.197Z,10.70
2022-11-27T01:13:19.835Z,14.02
2022-11-27T01:16:23.736Z,6.35
2022-11-27T01:19:26.391Z,7.55
2022-11-27T01:22:28.693Z,6.55
2022-11-27T01:25:33.716Z,7.13
2022-11-27T01:28:39.573Z,13.52
2022-11-27T01:31:42.024Z,5.38
2022-11-27T01:34:44.359Z,5.85
2022-11-27T01:37:46.554Z,3.63
2022-11-27T01:40:50.252Z,5.97
2022-11-27T01:43:55.228Z,5.75
2022-11-27T01:46:59.689Z,3.80
2022-11-27T01:50:09.415Z,8.18
2022-11-27T01:53:14.864Z,10.10
2022-11-27T01:56:19.002Z,9.27
2022-11-27T01:59:21.760Z,6.65
2022-11-27T02:02:24.091Z,11.93
2022-11-27T02:05:28.648Z,9.60
2022-11-27T02:08:31.172Z,9.68
2022-11-27T02:11:40.998Z,7.95
2022-11-27T02:14:50.441Z,7.53
2022-11-27T02:18:09.447Z,11.43
2022-11-27T02:21:19.063Z,6.22
2022-11-27T02:24:38.784Z,6.78
2022-11-27T02:27:56.772Z,10.50
2022-11-27T02:31:05.479Z,7.57
2022-11-27T02:34:16.102Z,10.27
2022-11-27T02:37:22.850Z,8.82
2022-11-27T02:40:31.820Z,8.23
2022-11-27T02:43:36.637Z,9.70
2022-11-27T02:46:41.791Z,13.57
2022-11-27T02:49:44.340Z,13.27
2022-11-27T02:52:48.043Z,8.20
2022-11-27T02:55:51.939Z,12.77
2022-11-27T02:58:56.846Z,13.18
2022-11-27T03:02:02.904Z,14.25
2022-11-27T03:05:07.169Z,10.57
2022-11-27T03:08:14.364Z,13.90
2022-11-27T03:11:18.367Z,12.90
2022-11-27T03:14:27.559Z,19.05
2022-11-27T03:17:39.332Z,17.10
2022-11-27T03:20:43.332Z,15.82
2022-11-27T03:23:45.687Z,14.77
2022-11-27T03:26:48.301Z,15.15
2022-11-27T03:29:52.824Z,12.68
2022-11-27T03:32:56.641Z,18.15
2022-11-27T03:35:58.973Z,20.25
2022-11-27T03:39:01.451Z,12.77
2022-11-27T03:42:12.319Z,14.52
2022-11-27T03:45:17.985Z,21.00
2022-11-27T03:48:26.268Z,16.92
2022-11-27T03:51:38.742Z,21.38
2022-11-27T03:54:46.122Z,21.70
2022-11-27T03:57:53.070Z,15.40
2022-11-27T04:00:56.610Z,16.13
2022-11-27T04:04:00.303Z,15.57
2022-11-27T04:07:03.880Z,17.95
2022-11-27T04:10:08.218Z,17.08
2022-11-27T04:13:10.466Z,21.83
2022-11-27T04:16:12.840Z,18.02
2022-11-27T04:19:16.479Z,15.10
2022-11-27T04:22:19.070Z,18.33
2022-11-27T04:25:21.401Z,17.30
2022-11-27T04:28:23.684Z,14.80
2022-11-27T04:31:26.003Z,16.50
2022-11-27T04:34:29.688Z,16.50
2022-11-27T04:37:32.109Z,17.98
2022-11-27T04:40:34.362Z,15.48
2022-11-27T04:43:36.612Z,15.98
2022-11-27T04:46:39.036Z,12.15
2022-11-27T04:49:42.699Z,14.18
2022-11-27T04:52:44.915Z,11.23
2022-11-27T04:55:47.259Z,12.45
2022-11-27T04:58:49.488Z,12.23
2022-11-27T05:01:51.736Z,21.60
2022-11-27T05:04:55.423Z,14.50
2022-11-27T05:07:57.811Z,17.58
2022-11-27T05:11:01.920Z,12.25
2022-11-27T05:14:20.722Z,13.05
2022-11-27T05:17:22.972Z,13.15
2022-11-27T05:20:26.664Z,12.32
2022-11-27T05:23:29.646Z,15.85
2022-11-27T05:26:32.013Z,11.20
2022-11-27T05:29:34.408Z,14.68
2022-11-27T05:32:37.200Z,7.93
2022-11-27T05:35:40.906Z,13.70
2022-11-27T05:38:43.282Z,10.38
2022-11-27T05:41:45.703Z,22.17
2022-11-27T05:44:48.267Z,12.50
2022-11-27T05:47:50.609Z,12.57
2022-11-27T05:50:54.264Z,12.40
2022-11-27T05:53:56.621Z,15.13
2022-11-27T05:56:58.886Z,11.23
2022-11-27T06:00:01.177Z,13.82
2022-11-27T06:03:07.162Z,10.05
2022-11-27T06:06:12.939Z,15.25
2022-11-27T06:09:15.230Z,11.48
2022-11-27T06:12:17.522Z,9.65
2022-11-27T06:15:19.836Z,13.35
2022-11-27T06:18:22.160Z,10.50
2022-11-27T06:21:25.855Z,10.10
2022-11-27T06:24:28.138Z,12.35
2022-11-27T06:27:32.757Z,7.82
2022-11-27T06:30:35.037Z,7.65
2022-11-27T06:33:37.494Z,12.25
2022-11-27T06:36:42.348Z,10.63
2022-11-27T06:39:44.829Z,7.65
2022-11-27T06:42:47.498Z,10.32
2022-11-27T06:45:57.058Z,6.63
2022-11-27T06:49:00.250Z,8.32
2022-11-27T06:52:04.305Z,7.78
2022-11-27T06:55:07.295Z,6.47
2022-11-27T06:58:09.655Z,7.20
2022-11-27T07:01:15.257Z,7.68
2022-11-27T07:04:17.738Z,7.15
2022-11-27T07:07:21.580Z,9.35
2022-11-27T07:10:23.999Z,9.43
2022-11-27T07:13:26.406Z,6.82
2022-11-27T07:16:31.829Z,8.02
2022-11-27T07:19:34.290Z,5.90
2022-11-27T07:22:37.974Z,7.20
2022-11-27T07:25:40.441Z,6.00
2022-11-27T07:28:46.203Z,8.82
2022-11-27T07:31:51.391Z,8.77
2022-11-27T07:34:53.897Z,6.03
2022-11-27T07:37:57.603Z,6.97
2022-11-27T07:41:00.773Z,6.55
2022-11-27T07:44:04.794Z,7.30
2022-11-27T07:47:07.245Z,6.53
2022-11-27T07:50:10.957Z,7.03
2022-11-27T07:53:14.751Z,4.18
2022-11-27T07:56:17.171Z,8.48
2022-11-27T07:59:19.716Z,9.80
2022-11-27T08:02:22.082Z,3.85
2022-11-27T08:05:24.463Z,8.80
2022-11-27T08:08:28.077Z,7.65
2022-11-27T08:11:32.996Z,5.53
2022-11-27T08:14:35.424Z,7.40
2022-11-27T08:17:37.989Z,9.80
2022-11-27T08:20:40.403Z,7.32
2022-11-27T08:23:44.078Z,7.80
2022-11-27T08:26:46.421Z,9.02
2022-11-27T08:29:48.769Z,7.78
2022-11-27T08:32:51.023Z,8.18
2022-11-27T08:35:54.248Z,7.43
2022-11-27T08:38:58.247Z,9.60
2022-11-27T08:42:00.726Z,5.25
2022-11-27T08:45:03.252Z,8.00
2022-11-27T08:48:05.892Z,10.30
2022-11-27T08:51:09.833Z,9.00
2022-11-27T08:54:13.577Z,11.20
2022-11-27T08:57:16.813Z,5.50
2022-11-27T09:00:24.901Z,8.88
2022-11-27T09:03:29.976Z,4.28
2022-11-27T09:06:34.726Z,10.05
2022-11-27T09:09:38.378Z,7.50
2022-11-27T09:12:43.619Z,8.95
2022-11-27T09:15:45.987Z,6.72
2022-11-27T09:18:50.136Z,9.30
2022-11-27T09:21:52.551Z,9.00
2022-11-27T09:24:56.276Z,9.82
2022-11-27T09:27:58.775Z,6.35
2022-11-27T09:31:02.951Z,10.38
2022-11-27T09:34:05.838Z,6.53
2022-11-27T09:37:09.215Z,10.05
2022-11-27T09:40:17.500Z,8.13
2022-11-27T09:43:27.841Z,8.55
2022-11-27T09:46:32.953Z,6.47
2022-11-27T09:49:36.750Z,6.55
2022-11-27T09:52:41.063Z,13.38
2022-11-27T09:55:47.437Z,8.45
2022-11-27T09:58:55.986Z,8.18
2022-11-27T10:01:58.537Z,6.63
2022-11-27T10:05:19.996Z,5.85
2022-11-27T10:08:27.339Z,9.23
2022-11-27T10:11:34.341Z,5.85
2022-11-27T10:14:47.322Z,8.20
2022-11-27T10:17:52.611Z,8.80
2022-11-27T10:20:57.878Z,9.18
2022-11-27T10:24:04.015Z,8.75
2022-11-27T10:27:15.162Z,7.45
2022-11-27T10:30:18.946Z,8.67
2022-11-27T10:33:27.488Z,8.63
2022-11-27T10:36:35.084Z,7.50
2022-11-27T10:39:42.946Z,9.73
2022-11-27T10:42:50.867Z,9.30
2022-11-27T10:45:55.025Z,6.82
2022-11-27T10:48:57.781Z,6.78
2022-11-27T10:52:00.031Z,5.68
2022-11-27T10:55:05.145Z,6.82
2022-11-27T10:58:16.121Z,8.50
2022-11-27T11:01:20.665Z,10.02
2022-11-27T11:04:41.981Z,9.20
2022-11-27T11:07:54.942Z,10.03
2022-11-27T11:10:59.461Z,9.25
2022-11-27T11:14:03.652Z,7.65
2022-11-27T11:17:16.359Z,6.95
2022-11-27T11:20:21.847Z,8.23
2022-11-27T11:23:35.205Z,4.35
2022-11-27T11:26:39.711Z,5.28
2022-11-27T11:29:48.141Z,7.53
2022-11-27T11:32:51.125Z,12.52
2022-11-27T11:35:55.309Z,5.57
2022-11-27T11:38:57.706Z,7.05
2022-11-27T11:42:00.218Z,6.63
2022-11-27T11:45:06.244Z,5.30
2022-11-27T11:48:21.577Z,5.80
2022-11-27T11:51:30.902Z,6.90
2022-11-27T11:54:49.585Z,3.95
2022-11-27T11:58:04.383Z,3.90
2022-11-27T12:01:27.023Z,7.00
2022-11-27T12:04:51.462Z,4.00
2022-11-27T12:08:01.484Z,6.55
2022-11-27T12:11:09.192Z,5.85
2022-11-27T12:14:18.765Z,5.90
2022-11-27T12:17:35.141Z,5.60
2022-11-27T12:20:48.037Z,5.53
2022-11-27T12:23:57.094Z,3.42
2022-11-27T12:27:12.691Z,6.57
2022-11-27T12:30:16.841Z,5.53
2022-11-27T12:33:31.509Z,7.68
2022-11-27T12:36:46.274Z,7.43
2022-11-27T12:39:58.141Z,6.68
2022-11-27T12:43:08.014Z,5.25
2022-11-27T12:46:14.764Z,16.23
2022-11-27T12:49:21.737Z,6.53
2022-11-27T12:52:26.041Z,5.22
2022-11-27T12:55:33.292Z,5.85
2022-11-27T12:58:38.213Z,5.68
2022-11-27T13:01:43.095Z,4.55
2022-11-27T13:04:50.210Z,6.55
2022-11-27T13:07:58.630Z,3.25
2022-11-27T13:11:04.572Z,4.63
2022-11-27T13:14:11.090Z,5.10
2022-11-27T13:17:16.307Z,5.72
2022-11-27T13:20:23.473Z,4.57
2022-11-27T13:23:25.898Z,4.47
2022-11-27T13:26:31.224Z,8.55
2022-11-27T13:29:39.397Z,5.18
2022-11-27T13:32:48.080Z,5.15
2022-11-27T13:35:53.837Z,5.68
2022-11-27T13:38:58.078Z,7.18
2022-11-27T13:42:04.165Z,4.90
2022-11-27T13:45:10.557Z,5.38
2022-11-27T13:48:32.358Z,3.80
2022-11-27T13:51:38.317Z,3.30
2022-11-27T13:54:51.930Z,4.65
2022-11-27T13:57:55.875Z,4.15
2022-11-27T14:00:58.366Z,3.65
2022-11-27T14:04:08.335Z,6.63
2022-11-27T14:07:16.038Z,3.75
2022-11-27T14:10:21.462Z,6.40
2022-11-27T14:13:34.001Z,4.10
2022-11-27T14:16:37.197Z,4.65
2022-11-27T14:19:41.905Z,5.68
2022-11-27T14:23:10.414Z,4.97
2022-11-27T14:26:20.530Z,7.03
2022-11-27T14:29:24.119Z,2.08
2022-11-27T14:32:35.562Z,7.15
2022-11-27T14:35:37.916Z,4.68
2022-11-27T14:38:46.568Z,7.05
2022-11-27T14:41:56.402Z,3.80
2022-11-27T14:45:02.345Z,8.10
2022-11-27T14:48:05.020Z,4.90
2022-11-27T14:51:14.266Z,6.30
2022-11-27T14:54:22.674Z,9.88
2022-11-27T14:57:27.170Z,5.60
2022-11-27T15:00:30.161Z,7.80
2022-11-27T15:03:32.883Z,5.97
2022-11-27T15:06:37.555Z,8.93
2022-11-27T15:09:44.399Z,6.43
2022-11-27T15:12:49.291Z,5.90
2022-11-27T15:16:01.240Z,6.65
2022-11-27T15:22:06.968Z,6.80
2022-11-27T15:25:29.362Z,4.13
2022-11-27T15:28:38.713Z,6.43
2022-11-27T15:31:50.823Z,6.40
2022-11-27T15:37:58.514Z,6.25
2022-11-27T15:41:02.392Z,9.45
2022-11-27T15:44:04.964Z,6.00
2022-11-27T15:47:19.605Z,8.30
2022-11-27T15:50:21.899Z,6.20
2022-11-27T15:53:24.312Z,6.05
2022-11-27T15:56:28.681Z,6.53
2022-11-27T15:59:31.071Z,7.82
2022-11-27T16:02:33.319Z,6.30
2022-11-27T16:05:35.630Z,9.85
2022-11-27T16:08:37.998Z,8.45
2022-11-27T16:11:41.901Z,6.18
2022-11-27T16:14:44.221Z,11.25
2022-11-27T16:17:46.493Z,7.25
2022-11-27T16:20:48.783Z,10.20
2022-11-27T16:23:51.325Z,8.60
2022-11-27T16:26:54.992Z,8.90
2022-11-27T16:29:57.358Z,5.68
2022-11-27T16:32:59.748Z,7.03
2022-11-27T16:36:06.565Z,6.00
2022-11-27T16:39:09.855Z,9.95
2022-11-27T16:42:13.884Z,10.15
2022-11-27T16:45:16.436Z,8.98
2022-11-27T16:48:18.989Z,8.52
2022-11-27T16:51:23.081Z,10.00
2022-11-27T16:54:25.494Z,12.25
2022-11-27T16:57:30.329Z,9.88
2022-11-27T17:00:33.001Z,7.82
2022-11-27T17:03:35.960Z,9.25
2022-11-27T17:06:39.214Z,9.05
2022-11-27T17:09:42.253Z,10.43
2022-11-27T17:12:45.992Z,9.48
2022-11-27T17:15:48.285Z,8.13
2022-11-27T17:18:50.662Z,13.30
2022-11-27T17:21:53.123Z,9.48
2022-11-27T17:24:58.365Z,7.82
2022-11-27T17:28:02.002Z,10.02
2022-11-27T17:31:11.983Z,10.63
2022-11-27T17:34:15.469Z,7.88
2022-11-27T17:37:20.280Z,11.73
2022-11-27T17:40:22.580Z,9.63
2022-11-27T17:43:28.048Z,9.00
2022-11-27T17:46:30.856Z,12.15
2022-11-27T17:49:33.332Z,10.63
2022-11-27T17:52:36.020Z,15.15
2022-11-27T17:55:38.889Z,10.18
2022-11-27T17:58:43.388Z,13.15
2022-11-27T18:01:48.608Z,8.60
2022-11-27T18:04:51.583Z,13.50
2022-11-27T18:07:54.189Z,10.43
2022-11-27T18:10:56.566Z,12.10
2022-11-27T18:14:00.522Z,10.55
2022-11-27T18:17:05.240Z,12.18
2022-11-27T18:20:09.097Z,11.90
2022-11-27T18:23:11.989Z,7.10
2022-11-27T18:26:16.896Z,12.30
2022-11-27T18:29:20.520Z,13.15
2022-11-27T18:32:22.988Z,11.32
2022-11-27T18:35:25.629Z,15.15
2022-11-27T18:38:30.131Z,10.57
2022-11-27T18:41:32.571Z,13.57
2022-11-27T18:44:41.294Z,24.13
2022-11-27T18:50:49.094Z,12.98
2022-11-27T18:53:52.369Z,12.10
2022-11-27T18:56:55.133Z,12.13
2022-11-27T18:59:59.909Z,9.77
2022-11-27T19:03:05.106Z,12.40
2022-11-27T19:06:08.485Z,15.30
2022-11-27T19:09:11.371Z,15.18
2022-11-27T19:12:13.962Z,12.27
2022-11-27T19:15:17.658Z,11.95
2022-11-27T19:18:20.165Z,11.45
2022-11-27T19:21:24.410Z,11.05
2022-11-27T19:24:29.683Z,10.50
2022-11-27T19:27:31.974Z,13.85
2022-11-27T19:30:38.757Z,10.85
2022-11-27T19:33:41.341Z,11.25
2022-11-27T19:36:43.678Z,10.93
2022-11-27T19:39:46.041Z,11.10
2022-11-27T19:42:54.575Z,11.88
2022-11-27T19:46:01.868Z,12.38
2022-11-27T19:49:06.786Z,11.52
2022-11-27T19:52:09.564Z,10.05
2022-11-27T19:55:12.099Z,9.82
2022-11-27T19:58:14.692Z,13.25
2022-11-27T20:01:19.843Z,19.05
2022-11-27T20:04:23.501Z,14.65
2022-11-27T20:07:25.875Z,12.85
2022-11-27T20:10:28.229Z,12.23
2022-11-27T20:13:30.733Z,13.90
2022-11-27T20:16:36.095Z,15.77
2022-11-27T20:19:39.457Z,11.55
2022-11-27T20:22:42.217Z,15.90
2022-11-27T20:25:44.828Z,12.30
2022-11-27T20:28:48.476Z,13.27
2022-11-27T20:31:52.474Z,14.18
2022-11-27T20:34:54.918Z,10.70
2022-11-27T20:37:57.482Z,16.20
2022-11-27T20:41:00.048Z,15.43
2022-11-27T20:44:04.831Z,11.25
2022-11-27T20:47:08.816Z,14.52
2022-11-27T20:50:12.095Z,10.60
2022-11-27T20:53:15.199Z,12.80
2022-11-27T20:56:20.203Z,12.43
2022-11-27T20:59:23.098Z,11.27
2022-11-27T21:02:27.138Z,12.48
2022-11-27T21:05:29.710Z,12.25
2022-11-27T21:08:33.433Z,14.75
2022-11-27T21:11:36.611Z,11.00
2022-11-27T21:14:39.302Z,10.48
2022-11-27T21:17:43.162Z,12.63
2022-11-27T21:20:45.457Z,14.13
2022-11-27T21:23:47.747Z,13.07
2022-11-27T21:26:50.104Z,13.43
2022-11-27T21:29:52.486Z,15.43
2022-11-27T21:32:56.187Z,12.02
2022-11-27T21:35:58.902Z,14.00
2022-11-27T21:39:02.018Z,14.77
2022-11-27T21:42:04.860Z,14.85
2022-11-27T21:45:07.862Z,12.77
2022-11-27T21:48:14.299Z,13.60
2022-11-27T21:51:17.346Z,12.85
2022-11-27T21:54:22.388Z,12.35
2022-11-27T21:57:25.235Z,15.13
2022-11-27T22:00:27.872Z,12.57
2022-11-27T22:03:32.205Z,14.70
2022-11-27T22:06:37.123Z,11.48
2022-11-27T22:09:39.447Z,14.80
2022-11-27T22:12:41.685Z,12.63
2022-11-27T22:15:43.993Z,13.98
2022-11-27T22:18:48.047Z,12.88
2022-11-27T22:21:50.402Z,11.88
2022-11-27T22:24:52.735Z,9.88
2022-11-27T22:27:55.166Z,11.77
2022-11-27T22:30:58.021Z,10.40
2022-11-27T22:34:02.021Z,18.67
2022-11-27T22:37:05.942Z,10.15
2022-11-27T22:40:08.937Z,8.98
2022-11-27T22:43:11.329Z,12.73
2022-11-27T22:46:15.632Z,11.55
2022-11-27T22:49:19.797Z,9.45
2022-11-27T22:52:22.181Z,12.85
2022-11-27T22:55:24.643Z,13.07
2022-11-27T22:58:27.997Z,14.60
2022-11-27T23:01:30.722Z,9.60
2022-11-27T23:04:34.860Z,13.70
2022-11-27T23:07:38.016Z,11.35
2022-11-27T23:10:40.399Z,11.13
2022-11-27T23:13:46.430Z,7.85
2022-11-27T23:16:51.858Z,9.10
2022-11-27T23:19:55.518Z,11.82
2022-11-27T23:22:57.872Z,13.98
2022-11-27T23:26:03.212Z,12.25
2022-11-27T23:29:05.595Z,11.20
2022-11-27T23:32:08.103Z,12.57
2022-11-27T23:35:11.901Z,11.10
2022-11-27T23:38:14.150Z,10.52
2022-11-27T23:41:18.394Z,10.02
2022-11-27T23:44:21.637Z,15.48
2022-11-27T23:47:23.972Z,15.02
2022-11-27T23:50:27.676Z,11.35
2022-11-27T23:53:29.984Z,12.88
2022-11-27T23:56:32.471Z,14.85
2022-11-27T23:59:34.783Z,14.90
